sensor_id;sensor_type;location;lat;lon;timestamp;P1;durP1;ratioP1;P2;durP2;ratioP2
11052;SDS011;55230;42.602;23.470;2022-12-01T00:01:47;3.10;;;2.23;;
11052;SDS011;55230;42.602;23.470;2022-12-01T00:04:14;3.67;;;3.07;;
11052;SDS011;55230;42.602;23.470;2022-12-01T00:06:41;3.23;;;2.80;;
11052;SDS011;55230;42.602;23.470;2022-12-01T00:09:07;3.97;;;2.77;;
11052;SDS011;55230;42.602;23.470;2022-12-01T00:11:53;2.83;;;2.50;;
11052;SDS011;55230;42.602;23.470;2022-12-01T00:14:20;3.03;;;1.90;;
11052;SDS011;55230;42.602;23.470;2022-12-01T00:16:47;3.10;;;1.80;;
11052;SDS011;55230;42.602;23.470;2022-12-01T00:19:13;1.57;;;1.47;;
11052;SDS011;55230;42.602;23.470;2022-12-01T00:21:41;5.13;;;3.10;;
11052;SDS011;55230;42.602;23.470;2022-12-01T00:24:08;3.07;;;2.40;;
11052;SDS011;55230;42.602;23.470;2022-12-01T00:26:37;2.43;;;2.23;;
11052;SDS011;55230;42.602;23.470;2022-12-01T00:29:16;2.63;;;2.23;;
11052;SDS011;55230;42.602;23.470;2022-12-01T00:31:43;3.87;;;2.70;;
11052;SDS011;55230;42.602;23.470;2022-12-01T00:34:11;3.57;;;2.57;;
11052;SDS011;55230;42.602;23.470;2022-12-01T00:36:47;3.70;;;3.27;;
11052;SDS011;55230;42.602;23.470;2022-12-01T00:39:14;3.30;;;2.90;;
11052;SDS011;55230;42.602;23.470;2022-12-01T00:41:41;6.53;;;4.43;;
11052;SDS011;55230;42.602;23.470;2022-12-01T00:44:08;5.03;;;3.73;;
11052;SDS011;55230;42.602;23.470;2022-12-01T00:46:36;4.20;;;3.60;;
11052;SDS011;55230;42.602;23.470;2022-12-01T00:49:03;3.90;;;3.30;;
11052;SDS011;55230;42.602;23.470;2022-12-01T00:51:30;4.87;;;3.63;;
11052;SDS011;55230;42.602;23.470;2022-12-01T00:53:57;4.57;;;3.73;;
11052;SDS011;55230;42.602;23.470;2022-12-01T00:56:23;4.50;;;3.50;;
11052;SDS011;55230;42.602;23.470;2022-12-01T00:58:50;4.80;;;3.40;;
11052;SDS011;55230;42.602;23.470;2022-12-01T01:01:17;7.17;;;4.23;;
11052;SDS011;55230;42.602;23.470;2022-12-01T01:03:45;8.03;;;5.00;;
11052;SDS011;55230;42.602;23.470;2022-12-01T01:06:13;9.27;;;5.60;;
11052;SDS011;55230;42.602;23.470;2022-12-01T01:08:40;5.63;;;4.00;;
11052;SDS011;55230;42.602;23.470;2022-12-01T01:11:07;6.17;;;4.20;;
11052;SDS011;55230;42.602;23.470;2022-12-01T01:13:35;9.87;;;6.83;;
11052;SDS011;55230;42.602;23.470;2022-12-01T01:16:03;5.03;;;3.33;;
11052;SDS011;55230;42.602;23.470;2022-12-01T01:18:31;4.63;;;3.63;;
11052;SDS011;55230;42.602;23.470;2022-12-01T01:21:00;5.60;;;3.50;;
11052;SDS011;55230;42.602;23.470;2022-12-01T01:23:28;4.00;;;3.17;;
11052;SDS011;55230;42.602;23.470;2022-12-01T01:25:59;3.00;;;2.70;;
11052;SDS011;55230;42.602;23.470;2022-12-01T01:28:27;2.47;;;2.13;;
11052;SDS011;55230;42.602;23.470;2022-12-01T01:30:54;3.00;;;2.10;;
11052;SDS011;55230;42.602;23.470;2022-12-01T01:33:21;4.73;;;2.80;;
11052;SDS011;55230;42.602;23.470;2022-12-01T01:35:48;3.00;;;2.60;;
11052;SDS011;55230;42.602;23.470;2022-12-01T01:38:16;2.93;;;2.27;;
11052;SDS011;55230;42.602;23.470;2022-12-01T01:40:43;5.17;;;3.17;;
11052;SDS011;55230;42.602;23.470;2022-12-01T01:43:12;5.70;;;3.80;;
11052;SDS011;55230;42.602;23.470;2022-12-01T01:45:40;3.80;;;3.03;;
11052;SDS011;55230;42.602;23.470;2022-12-01T01:48:07;4.40;;;3.70;;
11052;SDS011;55230;42.602;23.470;2022-12-01T01:50:35;3.33;;;2.90;;
11052;SDS011;55230;42.602;23.470;2022-12-01T01:53:04;2.33;;;2.10;;
11052;SDS011;55230;42.602;23.470;2022-12-01T01:55:35;2.70;;;2.50;;
11052;SDS011;55230;42.602;23.470;2022-12-01T01:58:03;2.40;;;2.20;;
11052;SDS011;55230;42.602;23.470;2022-12-01T02:00:34;2.30;;;2.10;;
11052;SDS011;55230;42.602;23.470;2022-12-01T02:03:02;2.50;;;2.30;;
11052;SDS011;55230;42.602;23.470;2022-12-01T02:05:30;2.57;;;2.30;;
11052;SDS011;55230;42.602;23.470;2022-12-01T02:07:59;4.60;;;2.67;;
11052;SDS011;55230;42.602;23.470;2022-12-01T02:10:28;2.73;;;2.27;;
11052;SDS011;55230;42.602;23.470;2022-12-01T02:13:10;3.23;;;2.40;;
11052;SDS011;55230;42.602;23.470;2022-12-01T02:15:50;2.57;;;2.10;;
11052;SDS011;55230;42.602;23.470;2022-12-01T02:18:27;3.13;;;2.20;;
11052;SDS011;55230;42.602;23.470;2022-12-01T02:21:10;2.80;;;2.53;;
11052;SDS011;55230;42.602;23.470;2022-12-01T02:27:01;2.03;;;1.83;;
11052;SDS011;55230;42.602;23.470;2022-12-01T02:32:32;3.80;;;2.70;;
11052;SDS011;55230;42.602;23.470;2022-12-01T02:35:10;4.53;;;2.30;;
11052;SDS011;55230;42.602;23.470;2022-12-01T02:37:43;5.13;;;2.73;;
11052;SDS011;55230;42.602;23.470;2022-12-01T02:40:16;3.33;;;2.17;;
11052;SDS011;55230;42.602;23.470;2022-12-01T02:42:48;1.67;;;1.57;;
11052;SDS011;55230;42.602;23.470;2022-12-01T02:45:29;1.73;;;1.63;;
11052;SDS011;55230;42.602;23.470;2022-12-01T02:48:03;1.00;;;1.00;;
11052;SDS011;55230;42.602;23.470;2022-12-01T02:50:33;1.40;;;1.30;;
11052;SDS011;55230;42.602;23.470;2022-12-01T02:53:03;1.63;;;1.50;;
11052;SDS011;55230;42.602;23.470;2022-12-01T02:55:32;1.23;;;1.13;;
11052;SDS011;55230;42.602;23.470;2022-12-01T02:57:59;1.13;;;1.10;;
11052;SDS011;55230;42.602;23.470;2022-12-01T03:00:26;1.60;;;1.30;;
11052;SDS011;55230;42.602;23.470;2022-12-01T03:03:12;3.63;;;2.10;;
11052;SDS011;55230;42.602;23.470;2022-12-01T03:05:51;2.47;;;1.60;;
11052;SDS011;55230;42.602;23.470;2022-12-01T03:08:28;1.57;;;1.27;;
11052;SDS011;55230;42.602;23.470;2022-12-01T03:10:58;1.73;;;1.10;;
11052;SDS011;55230;42.602;23.470;2022-12-01T03:13:29;1.93;;;1.50;;
11052;SDS011;55230;42.602;23.470;2022-12-01T03:16:05;2.87;;;2.00;;
11052;SDS011;55230;42.602;23.470;2022-12-01T03:18:39;2.23;;;1.90;;
11052;SDS011;55230;42.602;23.470;2022-12-01T03:21:09;3.10;;;2.40;;
11052;SDS011;55230;42.602;23.470;2022-12-01T03:23:41;4.07;;;3.10;;
11052;SDS011;55230;42.602;23.470;2022-12-01T03:26:12;5.60;;;3.73;;
11052;SDS011;55230;42.602;23.470;2022-12-01T03:28:44;4.93;;;3.57;;
11052;SDS011;55230;42.602;23.470;2022-12-01T03:31:16;2.70;;;2.50;;
11052;SDS011;55230;42.602;23.470;2022-12-01T03:33:48;2.30;;;2.10;;
11052;SDS011;55230;42.602;23.470;2022-12-01T03:36:21;2.37;;;2.10;;
11052;SDS011;55230;42.602;23.470;2022-12-01T03:38:53;5.27;;;3.30;;
11052;SDS011;55230;42.602;23.470;2022-12-01T03:41:26;2.80;;;2.23;;
11052;SDS011;55230;42.602;23.470;2022-12-01T03:44:02;2.70;;;2.30;;
11052;SDS011;55230;42.602;23.470;2022-12-01T03:46:36;3.33;;;2.70;;
11052;SDS011;55230;42.602;23.470;2022-12-01T03:49:10;2.90;;;2.60;;
11052;SDS011;55230;42.602;23.470;2022-12-01T03:51:39;3.63;;;2.90;;
11052;SDS011;55230;42.602;23.470;2022-12-01T03:54:15;2.53;;;1.93;;
11052;SDS011;55230;42.602;23.470;2022-12-01T03:56:47;1.63;;;1.53;;
11052;SDS011;55230;42.602;23.470;2022-12-01T03:59:18;2.90;;;1.63;;
11052;SDS011;55230;42.602;23.470;2022-12-01T04:01:47;1.60;;;1.50;;
11052;SDS011;55230;42.602;23.470;2022-12-01T04:04:16;1.60;;;1.50;;
11052;SDS011;55230;42.602;23.470;2022-12-01T04:06:44;2.30;;;1.80;;
11052;SDS011;55230;42.602;23.470;2022-12-01T04:09:15;8.33;;;6.67;;
11052;SDS011;55230;42.602;23.470;2022-12-01T04:11:41;1.97;;;1.83;;
11052;SDS011;55230;42.602;23.470;2022-12-01T04:14:25;4.20;;;3.80;;
11052;SDS011;55230;42.602;23.470;2022-12-01T04:16:53;3.00;;;2.70;;
11052;SDS011;55230;42.602;23.470;2022-12-01T04:19:21;4.13;;;3.73;;
11052;SDS011;55230;42.602;23.470;2022-12-01T04:21:48;4.27;;;3.77;;
11052;SDS011;55230;42.602;23.470;2022-12-01T04:24:14;4.20;;;3.90;;
11052;SDS011;55230;42.602;23.470;2022-12-01T04:26:41;11.03;;;8.10;;
11052;SDS011;55230;42.602;23.470;2022-12-01T04:29:10;5.60;;;3.90;;
11052;SDS011;55230;42.602;23.470;2022-12-01T04:31:38;4.27;;;3.87;;
11052;SDS011;55230;42.602;23.470;2022-12-01T04:34:05;3.60;;;3.30;;
11052;SDS011;55230;42.602;23.470;2022-12-01T04:36:33;3.90;;;3.50;;
11052;SDS011;55230;42.602;23.470;2022-12-01T04:39:00;3.60;;;3.00;;
11052;SDS011;55230;42.602;23.470;2022-12-01T04:41:28;6.30;;;3.83;;
11052;SDS011;55230;42.602;23.470;2022-12-01T04:43:55;4.97;;;3.40;;
11052;SDS011;55230;42.602;23.470;2022-12-01T04:46:21;3.13;;;2.40;;
11052;SDS011;55230;42.602;23.470;2022-12-01T04:48:49;2.73;;;2.27;;
11052;SDS011;55230;42.602;23.470;2022-12-01T04:51:16;2.50;;;2.27;;
11052;SDS011;55230;42.602;23.470;2022-12-01T04:53:44;4.00;;;2.60;;
11052;SDS011;55230;42.602;23.470;2022-12-01T04:56:11;3.70;;;2.70;;
11052;SDS011;55230;42.602;23.470;2022-12-01T04:58:37;3.23;;;2.50;;
11052;SDS011;55230;42.602;23.470;2022-12-01T05:01:05;5.67;;;4.13;;
11052;SDS011;55230;42.602;23.470;2022-12-01T05:03:34;5.07;;;3.90;;
11052;SDS011;55230;42.602;23.470;2022-12-01T05:06:02;6.63;;;4.33;;
11052;SDS011;55230;42.602;23.470;2022-12-01T05:08:29;6.50;;;4.40;;
11052;SDS011;55230;42.602;23.470;2022-12-01T05:10:57;5.33;;;3.60;;
11052;SDS011;55230;42.602;23.470;2022-12-01T05:13:24;6.53;;;4.17;;
11052;SDS011;55230;42.602;23.470;2022-12-01T05:15:51;5.93;;;4.20;;
11052;SDS011;55230;42.602;23.470;2022-12-01T05:18:18;22.03;;;9.40;;
11052;SDS011;55230;42.602;23.470;2022-12-01T05:20:44;31.30;;;15.47;;
11052;SDS011;55230;42.602;23.470;2022-12-01T05:23:22;14.87;;;8.97;;
11052;SDS011;55230;42.602;23.470;2022-12-01T05:25:49;16.40;;;9.10;;
11052;SDS011;55230;42.602;23.470;2022-12-01T05:28:17;43.97;;;19.93;;
11052;SDS011;55230;42.602;23.470;2022-12-01T05:30:44;57.47;;;25.57;;
11052;SDS011;55230;42.602;23.470;2022-12-01T05:33:11;28.97;;;12.83;;
11052;SDS011;55230;42.602;23.470;2022-12-01T05:35:38;22.37;;;11.13;;
11052;SDS011;55230;42.602;23.470;2022-12-01T05:38:05;35.83;;;17.87;;
11052;SDS011;55230;42.602;23.470;2022-12-01T05:40:32;14.30;;;8.73;;
11052;SDS011;55230;42.602;23.470;2022-12-01T05:42:59;22.10;;;9.97;;
11052;SDS011;55230;42.602;23.470;2022-12-01T05:45:27;13.97;;;8.00;;
11052;SDS011;55230;42.602;23.470;2022-12-01T05:47:54;11.60;;;6.83;;
11052;SDS011;55230;42.602;23.470;2022-12-01T05:50:22;17.33;;;7.73;;
11052;SDS011;55230;42.602;23.470;2022-12-01T05:52:49;7.20;;;4.83;;
11052;SDS011;55230;42.602;23.470;2022-12-01T05:55:16;5.57;;;3.63;;
11052;SDS011;55230;42.602;23.470;2022-12-01T05:57:42;9.20;;;3.83;;
11052;SDS011;55230;42.602;23.470;2022-12-01T06:00:10;10.97;;;5.33;;
11052;SDS011;55230;42.602;23.470;2022-12-01T06:02:39;15.37;;;7.73;;
11052;SDS011;55230;42.602;23.470;2022-12-01T06:05:07;9.53;;;4.77;;
11052;SDS011;55230;42.602;23.470;2022-12-01T06:07:34;3.77;;;2.83;;
11052;SDS011;55230;42.602;23.470;2022-12-01T06:10:04;5.20;;;3.87;;
11052;SDS011;55230;42.602;23.470;2022-12-01T06:12:32;11.30;;;6.27;;
11052;SDS011;55230;42.602;23.470;2022-12-01T06:14:59;5.67;;;4.07;;
11052;SDS011;55230;42.602;23.470;2022-12-01T06:17:26;4.33;;;3.30;;
11052;SDS011;55230;42.602;23.470;2022-12-01T06:19:54;5.57;;;4.20;;
11052;SDS011;55230;42.602;23.470;2022-12-01T06:22:21;10.20;;;6.27;;
11052;SDS011;55230;42.602;23.470;2022-12-01T06:24:48;4.60;;;3.40;;
11052;SDS011;55230;42.602;23.470;2022-12-01T06:27:14;3.93;;;3.30;;
11052;SDS011;55230;42.602;23.470;2022-12-01T06:29:41;4.03;;;2.43;;
11052;SDS011;55230;42.602;23.470;2022-12-01T06:32:08;4.67;;;4.00;;
11052;SDS011;55230;42.602;23.470;2022-12-01T06:34:35;6.57;;;4.70;;
11052;SDS011;55230;42.602;23.470;2022-12-01T06:37:03;8.27;;;4.73;;
11052;SDS011;55230;42.602;23.470;2022-12-01T06:39:30;7.87;;;4.30;;
11052;SDS011;55230;42.602;23.470;2022-12-01T06:41:57;3.30;;;2.70;;
11052;SDS011;55230;42.602;23.470;2022-12-01T06:44:23;4.23;;;3.40;;
11052;SDS011;55230;42.602;23.470;2022-12-01T06:46:50;6.13;;;4.33;;
11052;SDS011;55230;42.602;23.470;2022-12-01T06:49:17;7.43;;;4.80;;
11052;SDS011;55230;42.602;23.470;2022-12-01T06:51:45;5.67;;;3.90;;
11052;SDS011;55230;42.602;23.470;2022-12-01T06:54:13;19.97;;;8.43;;
11052;SDS011;55230;42.602;23.470;2022-12-01T06:56:41;8.13;;;5.00;;
11052;SDS011;55230;42.602;23.470;2022-12-01T06:59:10;7.07;;;4.23;;
11052;SDS011;55230;42.602;23.470;2022-12-01T07:01:37;5.90;;;4.07;;
11052;SDS011;55230;42.602;23.470;2022-12-01T07:04:03;8.37;;;4.40;;
11052;SDS011;55230;42.602;23.470;2022-12-01T07:06:30;6.10;;;4.50;;
11052;SDS011;55230;42.602;23.470;2022-12-01T07:08:58;9.83;;;6.10;;
11052;SDS011;55230;42.602;23.470;2022-12-01T07:11:26;7.93;;;5.30;;
11052;SDS011;55230;42.602;23.470;2022-12-01T07:13:55;6.97;;;4.03;;
11052;SDS011;55230;42.602;23.470;2022-12-01T07:16:22;9.70;;;5.10;;
11052;SDS011;55230;42.602;23.470;2022-12-01T07:18:48;8.43;;;4.20;;
11052;SDS011;55230;42.602;23.470;2022-12-01T07:21:16;4.63;;;3.80;;
11052;SDS011;55230;42.602;23.470;2022-12-01T07:23:43;8.23;;;4.40;;
11052;SDS011;55230;42.602;23.470;2022-12-01T07:26:10;8.90;;;5.10;;
11052;SDS011;55230;42.602;23.470;2022-12-01T07:28:40;15.33;;;9.63;;
11052;SDS011;55230;42.602;23.470;2022-12-01T07:31:08;16.37;;;11.27;;
11052;SDS011;55230;42.602;23.470;2022-12-01T07:33:36;18.83;;;11.50;;
11052;SDS011;55230;42.602;23.470;2022-12-01T07:36:03;10.57;;;6.93;;
11052;SDS011;55230;42.602;23.470;2022-12-01T07:38:31;10.33;;;6.57;;
11052;SDS011;55230;42.602;23.470;2022-12-01T07:41:02;10.17;;;6.10;;
11052;SDS011;55230;42.602;23.470;2022-12-01T07:43:30;11.83;;;7.87;;
11052;SDS011;55230;42.602;23.470;2022-12-01T07:46:03;14.00;;;9.77;;
11052;SDS011;55230;42.602;23.470;2022-12-01T07:48:31;4.80;;;3.90;;
11052;SDS011;55230;42.602;23.470;2022-12-01T07:50:58;8.10;;;5.13;;
11052;SDS011;55230;42.602;23.470;2022-12-01T07:53:24;6.23;;;5.27;;
11052;SDS011;55230;42.602;23.470;2022-12-01T07:55:51;6.70;;;5.90;;
11052;SDS011;55230;42.602;23.470;2022-12-01T07:58:18;5.93;;;4.87;;
11052;SDS011;55230;42.602;23.470;2022-12-01T08:00:45;4.10;;;3.33;;
11052;SDS011;55230;42.602;23.470;2022-12-01T08:03:13;9.67;;;7.10;;
11052;SDS011;55230;42.602;23.470;2022-12-01T08:05:40;10.83;;;8.17;;
11052;SDS011;55230;42.602;23.470;2022-12-01T08:08:07;10.37;;;7.50;;
11052;SDS011;55230;42.602;23.470;2022-12-01T08:10:33;10.07;;;7.80;;
11052;SDS011;55230;42.602;23.470;2022-12-01T08:13:00;12.87;;;9.97;;
11052;SDS011;55230;42.602;23.470;2022-12-01T08:15:27;4.33;;;3.87;;
11052;SDS011;55230;42.602;23.470;2022-12-01T08:17:54;7.23;;;5.73;;
11052;SDS011;55230;42.602;23.470;2022-12-01T08:20:22;10.00;;;7.50;;
11052;SDS011;55230;42.602;23.470;2022-12-01T08:22:49;8.03;;;5.00;;
11052;SDS011;55230;42.602;23.470;2022-12-01T08:25:16;7.73;;;5.97;;
11052;SDS011;55230;42.602;23.470;2022-12-01T08:27:43;6.17;;;4.20;;
11052;SDS011;55230;42.602;23.470;2022-12-01T08:30:10;5.00;;;3.53;;
11052;SDS011;55230;42.602;23.470;2022-12-01T08:32:37;6.57;;;4.43;;
11052;SDS011;55230;42.602;23.470;2022-12-01T08:35:04;8.07;;;4.77;;
11052;SDS011;55230;42.602;23.470;2022-12-01T08:37:33;12.60;;;8.30;;
11052;SDS011;55230;42.602;23.470;2022-12-01T08:40:00;9.20;;;6.73;;
11052;SDS011;55230;42.602;23.470;2022-12-01T08:42:27;12.87;;;8.07;;
11052;SDS011;55230;42.602;23.470;2022-12-01T08:44:53;8.27;;;6.30;;
11052;SDS011;55230;42.602;23.470;2022-12-01T08:47:20;4.87;;;4.03;;
11052;SDS011;55230;42.602;23.470;2022-12-01T08:49:47;9.87;;;7.03;;
11052;SDS011;55230;42.602;23.470;2022-12-01T08:52:14;8.43;;;6.00;;
11052;SDS011;55230;42.602;23.470;2022-12-01T08:54:42;9.60;;;7.23;;
11052;SDS011;55230;42.602;23.470;2022-12-01T08:57:08;10.67;;;7.83;;
11052;SDS011;55230;42.602;23.470;2022-12-01T08:59:35;10.30;;;7.20;;
11052;SDS011;55230;42.602;23.470;2022-12-01T09:02:02;7.10;;;5.37;;
11052;SDS011;55230;42.602;23.470;2022-12-01T09:04:31;9.30;;;6.37;;
11052;SDS011;55230;42.602;23.470;2022-12-01T09:06:57;9.33;;;6.30;;
11052;SDS011;55230;42.602;23.470;2022-12-01T09:09:25;8.77;;;5.63;;
11052;SDS011;55230;42.602;23.470;2022-12-01T09:11:55;17.57;;;10.87;;
11052;SDS011;55230;42.602;23.470;2022-12-01T09:14:22;10.80;;;7.17;;
11052;SDS011;55230;42.602;23.470;2022-12-01T09:16:49;11.63;;;8.40;;
11052;SDS011;55230;42.602;23.470;2022-12-01T09:19:16;9.63;;;6.17;;
11052;SDS011;55230;42.602;23.470;2022-12-01T09:21:44;7.90;;;5.00;;
11052;SDS011;55230;42.602;23.470;2022-12-01T09:24:12;7.00;;;5.50;;
11052;SDS011;55230;42.602;23.470;2022-12-01T09:26:40;10.43;;;6.47;;
11052;SDS011;55230;42.602;23.470;2022-12-01T09:29:10;13.30;;;6.70;;
11052;SDS011;55230;42.602;23.470;2022-12-01T09:31:38;13.23;;;7.07;;
11052;SDS011;55230;42.602;23.470;2022-12-01T09:34:07;8.50;;;5.37;;
11052;SDS011;55230;42.602;23.470;2022-12-01T09:36:36;12.77;;;8.20;;
11052;SDS011;55230;42.602;23.470;2022-12-01T09:39:04;7.60;;;5.67;;
11052;SDS011;55230;42.602;23.470;2022-12-01T09:41:33;5.93;;;4.27;;
11052;SDS011;55230;42.602;23.470;2022-12-01T09:44:03;6.50;;;4.67;;
11052;SDS011;55230;42.602;23.470;2022-12-01T09:46:42;8.53;;;5.53;;
11052;SDS011;55230;42.602;23.470;2022-12-01T09:49:14;5.40;;;3.80;;
11052;SDS011;55230;42.602;23.470;2022-12-01T09:51:43;5.77;;;3.93;;
11052;SDS011;55230;42.602;23.470;2022-12-01T09:54:11;6.77;;;4.90;;
11052;SDS011;55230;42.602;23.470;2022-12-01T09:56:41;6.20;;;4.70;;
11052;SDS011;55230;42.602;23.470;2022-12-01T09:59:14;8.90;;;5.90;;
11052;SDS011;55230;42.602;23.470;2022-12-01T10:01:47;10.53;;;6.10;;
11052;SDS011;55230;42.602;23.470;2022-12-01T10:04:21;7.23;;;4.87;;
11052;SDS011;55230;42.602;23.470;2022-12-01T10:06:54;3.53;;;3.00;;
11052;SDS011;55230;42.602;23.470;2022-12-01T10:09:27;5.13;;;3.50;;
11052;SDS011;55230;42.602;23.470;2022-12-01T10:12:03;6.20;;;3.67;;
11052;SDS011;55230;42.602;23.470;2022-12-01T10:14:36;4.70;;;3.73;;
11052;SDS011;55230;42.602;23.470;2022-12-01T10:17:08;3.23;;;2.83;;
11052;SDS011;55230;42.602;23.470;2022-12-01T10:19:49;3.73;;;3.20;;
11052;SDS011;55230;42.602;23.470;2022-12-01T10:22:28;3.93;;;2.83;;
11052;SDS011;55230;42.602;23.470;2022-12-01T10:25:13;6.60;;;4.97;;
11052;SDS011;55230;42.602;23.470;2022-12-01T10:27:52;6.70;;;4.93;;
11052;SDS011;55230;42.602;23.470;2022-12-01T10:30:26;6.30;;;3.80;;
11052;SDS011;55230;42.602;23.470;2022-12-01T10:32:55;6.07;;;4.23;;
11052;SDS011;55230;42.602;23.470;2022-12-01T10:35:27;3.77;;;2.97;;
11052;SDS011;55230;42.602;23.470;2022-12-01T10:38:04;4.43;;;3.03;;
11052;SDS011;55230;42.602;23.470;2022-12-01T10:40:36;7.77;;;4.33;;
11052;SDS011;55230;42.602;23.470;2022-12-01T10:43:04;7.43;;;4.80;;
11052;SDS011;55230;42.602;23.470;2022-12-01T10:45:32;8.10;;;5.03;;
11052;SDS011;55230;42.602;23.470;2022-12-01T10:48:08;7.17;;;4.77;;
11052;SDS011;55230;42.602;23.470;2022-12-01T10:50:39;5.57;;;4.17;;
11052;SDS011;55230;42.602;23.470;2022-12-01T10:53:08;11.80;;;7.07;;
11052;SDS011;55230;42.602;23.470;2022-12-01T10:55:55;7.53;;;5.43;;
11052;SDS011;55230;42.602;23.470;2022-12-01T10:58:25;6.90;;;5.60;;
11052;SDS011;55230;42.602;23.470;2022-12-01T11:00:54;9.27;;;6.07;;
11052;SDS011;55230;42.602;23.470;2022-12-01T11:03:24;8.07;;;4.67;;
11052;SDS011;55230;42.602;23.470;2022-12-01T11:05:54;8.40;;;4.80;;
11052;SDS011;55230;42.602;23.470;2022-12-01T11:08:24;9.63;;;6.00;;
11052;SDS011;55230;42.602;23.470;2022-12-01T11:10:57;11.20;;;6.30;;
11052;SDS011;55230;42.602;23.470;2022-12-01T11:13:25;10.70;;;6.03;;
11052;SDS011;55230;42.602;23.470;2022-12-01T11:15:55;6.87;;;5.13;;
11052;SDS011;55230;42.602;23.470;2022-12-01T11:18:27;6.57;;;4.83;;
11052;SDS011;55230;42.602;23.470;2022-12-01T11:21:03;4.97;;;3.60;;
11052;SDS011;55230;42.602;23.470;2022-12-01T11:23:34;7.67;;;5.57;;
11052;SDS011;55230;42.602;23.470;2022-12-01T11:26:06;11.80;;;6.00;;
11052;SDS011;55230;42.602;23.470;2022-12-01T11:28:39;9.70;;;6.20;;
11052;SDS011;55230;42.602;23.470;2022-12-01T11:31:09;7.10;;;5.23;;
11052;SDS011;55230;42.602;23.470;2022-12-01T11:33:42;6.73;;;4.73;;
11052;SDS011;55230;42.602;23.470;2022-12-01T11:36:18;7.47;;;4.30;;
11052;SDS011;55230;42.602;23.470;2022-12-01T11:38:47;20.27;;;11.07;;
11052;SDS011;55230;42.602;23.470;2022-12-01T11:41:22;10.63;;;7.33;;
11052;SDS011;55230;42.602;23.470;2022-12-01T11:43:53;11.23;;;7.10;;
11052;SDS011;55230;42.602;23.470;2022-12-01T11:46:26;10.73;;;6.07;;
11052;SDS011;55230;42.602;23.470;2022-12-01T11:48:58;8.43;;;6.00;;
11052;SDS011;55230;42.602;23.470;2022-12-01T11:51:27;8.70;;;5.93;;
11052;SDS011;55230;42.602;23.470;2022-12-01T11:54:05;10.40;;;6.90;;
11052;SDS011;55230;42.602;23.470;2022-12-01T11:56:38;8.73;;;6.00;;
11052;SDS011;55230;42.602;23.470;2022-12-01T11:59:09;8.73;;;5.60;;
11052;SDS011;55230;42.602;23.470;2022-12-01T12:01:42;6.70;;;5.27;;
11052;SDS011;55230;42.602;23.470;2022-12-01T12:04:31;9.60;;;6.60;;
11052;SDS011;55230;42.602;23.470;2022-12-01T12:07:25;7.43;;;4.80;;
11052;SDS011;55230;42.602;23.470;2022-12-01T12:10:12;9.70;;;6.47;;
11052;SDS011;55230;42.602;23.470;2022-12-01T12:12:56;6.27;;;5.13;;
11052;SDS011;55230;42.602;23.470;2022-12-01T12:15:35;6.33;;;4.43;;
11052;SDS011;55230;42.602;23.470;2022-12-01T12:18:31;5.90;;;3.80;;
11052;SDS011;55230;42.602;23.470;2022-12-01T12:21:11;10.37;;;6.40;;
11052;SDS011;55230;42.602;23.470;2022-12-01T12:26:46;29.97;;;13.70;;
11052;SDS011;55230;42.602;23.470;2022-12-01T12:29:26;24.37;;;11.87;;
11052;SDS011;55230;42.602;23.470;2022-12-01T12:32:04;10.77;;;6.60;;
11052;SDS011;55230;42.602;23.470;2022-12-01T12:34:46;14.90;;;8.73;;
11052;SDS011;55230;42.602;23.470;2022-12-01T12:37:24;14.37;;;8.23;;
11052;SDS011;55230;42.602;23.470;2022-12-01T12:40:03;12.23;;;8.47;;
11052;SDS011;55230;42.602;23.470;2022-12-01T12:42:54;10.07;;;6.20;;
11052;SDS011;55230;42.602;23.470;2022-12-01T12:45:34;21.07;;;12.97;;
11052;SDS011;55230;42.602;23.470;2022-12-01T12:48:17;10.20;;;7.13;;
11052;SDS011;55230;42.602;23.470;2022-12-01T12:50:53;9.57;;;6.80;;
11052;SDS011;55230;42.602;23.470;2022-12-01T12:53:30;18.73;;;10.20;;
11052;SDS011;55230;42.602;23.470;2022-12-01T12:56:04;14.07;;;8.23;;
11052;SDS011;55230;42.602;23.470;2022-12-01T12:58:37;13.70;;;8.80;;
11052;SDS011;55230;42.602;23.470;2022-12-01T13:01:08;31.23;;;16.67;;
11052;SDS011;55230;42.602;23.470;2022-12-01T13:03:41;24.93;;;14.77;;
11052;SDS011;55230;42.602;23.470;2022-12-01T13:06:13;12.23;;;7.73;;
11052;SDS011;55230;42.602;23.470;2022-12-01T13:08:46;22.27;;;13.03;;
11052;SDS011;55230;42.602;23.470;2022-12-01T13:11:19;14.60;;;8.63;;
11052;SDS011;55230;42.602;23.470;2022-12-01T13:13:53;10.53;;;6.80;;
11052;SDS011;55230;42.602;23.470;2022-12-01T13:16:25;14.53;;;8.63;;
11052;SDS011;55230;42.602;23.470;2022-12-01T13:18:58;19.40;;;11.00;;
11052;SDS011;55230;42.602;23.470;2022-12-01T13:21:33;14.10;;;10.00;;
11052;SDS011;55230;42.602;23.470;2022-12-01T13:24:03;17.10;;;11.83;;
11052;SDS011;55230;42.602;23.470;2022-12-01T13:26:32;20.53;;;12.77;;
11052;SDS011;55230;42.602;23.470;2022-12-01T13:29:03;16.50;;;10.53;;
11052;SDS011;55230;42.602;23.470;2022-12-01T13:31:40;12.37;;;7.87;;
11052;SDS011;55230;42.602;23.470;2022-12-01T13:34:14;9.70;;;6.73;;
11052;SDS011;55230;42.602;23.470;2022-12-01T13:36:47;16.30;;;10.60;;
11052;SDS011;55230;42.602;23.470;2022-12-01T13:39:17;19.53;;;11.93;;
11052;SDS011;55230;42.602;23.470;2022-12-01T13:41:55;19.43;;;11.47;;
11052;SDS011;55230;42.602;23.470;2022-12-01T13:44:24;21.60;;;13.37;;
11052;SDS011;55230;42.602;23.470;2022-12-01T13:46:56;14.00;;;8.33;;
11052;SDS011;55230;42.602;23.470;2022-12-01T13:49:40;20.47;;;11.67;;
11052;SDS011;55230;42.602;23.470;2022-12-01T13:52:15;24.07;;;13.50;;
11052;SDS011;55230;42.602;23.470;2022-12-01T13:54:59;16.77;;;11.57;;
11052;SDS011;55230;42.602;23.470;2022-12-01T13:57:42;16.07;;;10.60;;
11052;SDS011;55230;42.602;23.470;2022-12-01T14:00:22;18.93;;;12.10;;
11052;SDS011;55230;42.602;23.470;2022-12-01T14:06:18;13.90;;;8.73;;
11052;SDS011;55230;42.602;23.470;2022-12-01T14:08:50;12.10;;;8.23;;
11052;SDS011;55230;42.602;23.470;2022-12-01T14:11:22;12.33;;;7.57;;
11052;SDS011;55230;42.602;23.470;2022-12-01T14:13:52;12.50;;;8.97;;
11052;SDS011;55230;42.602;23.470;2022-12-01T14:16:22;14.50;;;9.67;;
11052;SDS011;55230;42.602;23.470;2022-12-01T14:18:50;12.70;;;7.40;;
11052;SDS011;55230;42.602;23.470;2022-12-01T14:24:14;11.53;;;7.20;;
11052;SDS011;55230;42.602;23.470;2022-12-01T14:26:47;8.80;;;5.03;;
11052;SDS011;55230;42.602;23.470;2022-12-01T14:29:31;11.17;;;7.63;;
11052;SDS011;55230;42.602;23.470;2022-12-01T14:34:59;12.33;;;7.33;;
11052;SDS011;55230;42.602;23.470;2022-12-01T14:37:38;10.23;;;7.00;;
11052;SDS011;55230;42.602;23.470;2022-12-01T14:40:14;11.83;;;7.10;;
11052;SDS011;55230;42.602;23.470;2022-12-01T14:42:52;9.90;;;6.13;;
11052;SDS011;55230;42.602;23.470;2022-12-01T14:45:40;7.00;;;5.03;;
11052;SDS011;55230;42.602;23.470;2022-12-01T14:48:14;8.73;;;5.93;;
11052;SDS011;55230;42.602;23.470;2022-12-01T14:50:46;9.57;;;6.80;;
11052;SDS011;55230;42.602;23.470;2022-12-01T14:53:19;11.90;;;7.30;;
11052;SDS011;55230;42.602;23.470;2022-12-01T14:55:49;13.40;;;8.13;;
11052;SDS011;55230;42.602;23.470;2022-12-01T14:58:22;15.60;;;9.73;;
11052;SDS011;55230;42.602;23.470;2022-12-01T15:01:02;12.60;;;9.37;;
11052;SDS011;55230;42.602;23.470;2022-12-01T15:03:33;13.17;;;10.07;;
11052;SDS011;55230;42.602;23.470;2022-12-01T15:06:02;16.93;;;12.00;;
11052;SDS011;55230;42.602;23.470;2022-12-01T15:08:30;25.43;;;17.37;;